createdAt,value
2016-09-02T00:04:09.136Z,1015.19
2016-09-02T00:09:06.094Z,1015.11
2016-09-02T00:14:02.868Z,1015.14
2016-09-02T00:18:59.525Z,1015.15
2016-09-02T00:23:56.018Z,1015.09
2016-09-02T00:28:53.504Z,1015.12
2016-09-02T00:33:50.250Z,1015.08
2016-09-02T00:38:46.934Z,1015.05
2016-09-02T00:43:43.393Z,1015.02
2016-09-02T00:48:39.875Z,1014.97
2016-09-02T00:53:38.817Z,1014.96
2016-09-02T00:58:35.148Z,1014.96
2016-09-02T01:03:31.854Z,1014.96
2016-09-02T01:08:28.644Z,1014.93
2016-09-02T01:13:25.250Z,1014.85
2016-09-02T01:18:21.936Z,1014.92
2016-09-02T01:23:19.761Z,1014.92
2016-09-02T01:28:15.969Z,1014.98
2016-09-02T01:33:12.526Z,1014.92
2016-09-02T01:38:10.152Z,1015.00
2016-09-02T01:43:06.820Z,1014.99
2016-09-02T01:48:03.456Z,1015.06
2016-09-02T01:53:00.397Z,1015.07
2016-09-02T01:57:56.995Z,1015.09
2016-09-02T02:02:53.501Z,1015.02
2016-09-02T02:07:49.864Z,1014.92
2016-09-02T02:12:47.281Z,1014.92
2016-09-02T02:17:44.241Z,1015.00
2016-09-02T02:22:40.535Z,1015.11
2016-09-02T02:27:37.082Z,1015.07
2016-09-02T02:32:33.739Z,1014.96
2016-09-02T02:37:30.497Z,1014.93
2016-09-02T02:42:27.347Z,1014.92
2016-09-02T02:47:24.224Z,1014.94
2016-09-02T02:52:20.865Z,1014.90
2016-09-02T02:57:17.812Z,1014.91
2016-09-02T03:02:14.502Z,1014.75
2016-09-02T03:07:10.973Z,1014.83
2016-09-02T03:12:07.746Z,1014.75
2016-09-02T03:17:04.416Z,1014.69
2016-09-02T03:22:01.086Z,1014.75
2016-09-02T03:26:57.465Z,1014.78
2016-09-02T03:31:54.051Z,1014.67
2016-09-02T03:36:50.860Z,1014.65
2016-09-02T03:41:47.415Z,1014.60
2016-09-02T03:46:43.960Z,1014.57
2016-09-02T03:51:40.653Z,1014.56
2016-09-02T03:56:37.076Z,1014.60
2016-09-02T04:01:33.549Z,1014.56
2016-09-02T04:06:30.691Z,1014.51
2016-09-02T04:11:27.209Z,1014.52
2016-09-02T04:16:23.741Z,1014.51
2016-09-02T04:21:20.319Z,1014.53
2016-09-02T04:26:16.998Z,1014.53
2016-09-02T04:31:13.541Z,1014.46
2016-09-02T04:36:10.131Z,1014.35
2016-09-02T04:41:06.625Z,1014.32
2016-09-02T04:46:05.809Z,1014.35
2016-09-02T04:51:01.738Z,1014.35
2016-09-02T04:55:59.424Z,1014.38
2016-09-02T05:00:55.803Z,1014.31
2016-09-02T05:05:52.585Z,1014.31
2016-09-02T05:10:49.311Z,1014.27
2016-09-02T05:15:45.867Z,1014.35
2016-09-02T05:20:43.056Z,1014.41
2016-09-02T05:25:40.005Z,1014.31
2016-09-02T05:30:36.649Z,1014.17
2016-09-02T05:35:33.240Z,1014.23
2016-09-02T05:40:30.035Z,1014.23
2016-09-02T05:45:26.751Z,1014.41
2016-09-02T05:50:23.456Z,1014.34
2016-09-02T05:55:20.120Z,1014.47
2016-09-02T06:00:16.651Z,1014.48
2016-09-02T06:05:13.987Z,1014.52
2016-09-02T06:10:12.377Z,1014.49
2016-09-02T06:15:08.891Z,1014.41
2016-09-02T06:20:05.523Z,1014.38
2016-09-02T06:25:02.558Z,1014.43
2016-09-02T06:30:00.691Z,1014.47
2016-09-02T06:34:56.834Z,1014.50
2016-09-02T06:39:53.479Z,1014.45
2016-09-02T06:44:50.629Z,1014.27
2016-09-02T06:49:47.681Z,1014.29
2016-09-02T06:54:44.520Z,1014.19
2016-09-02T06:59:41.167Z,1014.15
2016-09-02T07:04:39.598Z,1014.27
2016-09-02T07:09:36.501Z,1014.27
2016-09-02T07:14:33.313Z,1014.23
2016-09-02T07:19:30.021Z,1014.07
2016-09-02T07:24:26.698Z,1014.20
2016-09-02T07:29:23.470Z,1014.34
2016-09-02T07:34:20.304Z,1014.38
2016-09-02T07:39:17.003Z,1014.32
2016-09-02T07:44:13.891Z,1014.41
2016-09-02T07:49:10.591Z,1014.26
2016-09-02T07:54:07.428Z,1014.28
2016-09-02T07:59:04.126Z,1014.30
2016-09-02T08:04:00.781Z,1014.17
2016-09-02T08:09:00.664Z,1014.20
2016-09-02T08:13:57.190Z,1014.28
2016-09-02T08:18:54.025Z,1014.25
2016-09-02T08:23:50.851Z,1014.22
2016-09-02T08:28:48.010Z,1014.39
2016-09-02T08:33:44.198Z,1014.29
2016-09-02T08:38:41.424Z,1014.39
2016-09-02T08:43:40.855Z,1014.39
2016-09-02T08:48:37.179Z,1014.32
2016-09-02T08:53:33.799Z,1014.29
2016-09-02T08:58:30.462Z,1014.28
2016-09-02T09:03:27.221Z,1014.19
2016-09-02T09:08:23.525Z,1014.21
2016-09-02T09:13:20.037Z,1014.11
2016-09-02T09:18:16.723Z,1014.04
2016-09-02T09:23:13.088Z,1013.88
2016-09-02T09:28:10.444Z,1013.84
2016-09-02T09:33:06.822Z,1013.83
2016-09-02T09:38:03.293Z,1013.58
2016-09-02T09:43:00.029Z,1013.50
2016-09-02T09:47:59.084Z,1013.61
2016-09-02T09:52:55.059Z,1013.72
2016-09-02T09:57:54.006Z,1013.75
2016-09-02T10:02:50.057Z,1013.59
2016-09-02T10:07:46.684Z,1013.48
2016-09-02T10:12:43.447Z,1013.38
2016-09-02T10:17:42.527Z,1013.50
2016-09-02T10:22:39.125Z,1013.39
2016-09-02T10:27:35.747Z,1013.38
2016-09-02T10:32:32.264Z,1013.32
2016-09-02T10:37:30.661Z,1013.25
2016-09-02T10:42:26.961Z,1013.30
2016-09-02T10:47:23.477Z,1013.24
2016-09-02T10:52:20.149Z,1013.21
2016-09-02T10:57:16.583Z,1013.04
2016-09-02T11:02:13.340Z,1012.93
2016-09-02T11:07:09.822Z,1012.89
2016-09-02T11:12:06.600Z,1012.90
2016-09-02T11:17:03.353Z,1012.85
2016-09-02T11:22:00.162Z,1012.90
2016-09-02T11:26:56.766Z,1013.02
2016-09-02T11:31:53.790Z,1012.87
2016-09-02T11:36:50.532Z,1012.91
2016-09-02T11:41:47.338Z,1012.83
2016-09-02T11:46:43.900Z,1012.75
2016-09-02T11:51:41.009Z,1012.69
2016-09-02T11:56:37.649Z,1012.64
2016-09-02T12:01:34.436Z,1012.64
2016-09-02T12:06:33.724Z,1012.48
2016-09-02T12:11:29.997Z,1012.51
2016-09-02T12:16:26.610Z,1012.53
2016-09-02T12:21:23.256Z,1012.50
2016-09-02T12:26:22.948Z,1012.42
2016-09-02T12:31:18.952Z,1012.45
2016-09-02T12:36:15.680Z,1012.58
2016-09-02T12:41:15.147Z,1012.42
2016-09-02T12:46:11.094Z,1012.31
2016-09-02T12:51:07.618Z,1012.18
2016-09-02T12:56:04.649Z,1012.33
2016-09-02T13:01:01.201Z,1012.16
2016-09-02T13:06:00.366Z,1012.08
2016-09-02T13:10:56.597Z,1011.93
2016-09-02T13:15:53.247Z,1011.84
2016-09-02T13:20:49.768Z,1011.91
2016-09-02T13:25:46.419Z,1011.89
2016-09-02T13:30:44.172Z,1011.78
2016-09-02T13:35:40.396Z,1011.83
2016-09-02T13:40:37.153Z,1011.84
2016-09-02T13:45:34.963Z,1011.87
2016-09-02T13:50:31.599Z,1011.78
2016-09-02T13:55:28.421Z,1011.73
2016-09-02T14:00:24.802Z,1011.73
2016-09-02T14:05:21.496Z,1011.75
2016-09-02T14:10:18.148Z,1011.63
2016-09-02T14:15:14.953Z,1011.58
2016-09-02T14:20:11.586Z,1011.54
2016-09-02T14:25:08.284Z,1011.35
2016-09-02T14:30:05.293Z,1011.30
2016-09-02T14:35:02.062Z,1011.34
2016-09-02T14:39:58.930Z,1011.36
2016-09-02T14:44:56.550Z,1011.29
2016-09-02T14:49:59.290Z,1011.33
2016-09-02T14:54:54.945Z,1011.33
2016-09-02T14:59:51.804Z,1011.24
2016-09-02T15:04:48.462Z,1011.29
2016-09-02T15:09:45.137Z,1011.06
2016-09-02T15:14:41.727Z,1011.13
2016-09-02T15:19:38.360Z,1011.12
2016-09-02T15:24:35.169Z,1011.15
2016-09-02T15:29:31.825Z,1011.13
2016-09-02T15:34:28.315Z,1011.10
2016-09-02T15:39:25.036Z,1011.11
2016-09-02T15:44:24.076Z,1011.05
2016-09-02T15:49:20.115Z,1011.10
2016-09-02T15:54:16.610Z,1011.10
2016-09-02T15:59:13.466Z,1011.12
2016-09-02T16:04:09.985Z,1011.22
2016-09-02T16:09:09.120Z,1011.24
2016-09-02T16:14:05.175Z,1011.35
2016-09-02T16:19:01.825Z,1011.43
2016-09-02T16:23:59.304Z,1011.48
2016-09-02T16:28:55.962Z,1011.43
2016-09-02T16:33:52.712Z,1011.40
2016-09-02T16:38:49.793Z,1011.49
2016-09-02T16:43:46.228Z,1011.44
2016-09-02T16:48:42.971Z,1011.62
2016-09-02T16:53:40.059Z,1011.49
2016-09-02T16:58:36.940Z,1011.50
2016-09-02T17:03:33.695Z,1011.54
2016-09-02T17:08:30.190Z,1011.51
2016-09-02T17:13:27.363Z,1011.49
2016-09-02T17:18:23.956Z,1011.47
2016-09-02T17:23:21.825Z,1011.51
2016-09-02T17:28:18.228Z,1011.44
2016-09-02T17:33:14.789Z,1011.49
2016-09-02T17:38:11.565Z,1011.53
2016-09-02T17:43:08.676Z,1011.54
2016-09-02T17:48:05.204Z,1011.56
2016-09-02T17:53:02.250Z,1011.57
2016-09-02T17:57:59.376Z,1011.57
2016-09-02T18:02:58.455Z,1011.52
2016-09-02T18:07:54.279Z,1011.56
2016-09-02T18:12:50.673Z,1011.65
2016-09-02T18:17:47.498Z,1011.66
2016-09-02T18:22:44.124Z,1011.62
2016-09-02T18:27:40.881Z,1011.61
2016-09-02T18:32:39.924Z,1011.70
2016-09-02T18:37:36.124Z,1011.68
2016-09-02T18:42:34.889Z,1011.81
2016-09-02T18:47:30.924Z,1011.80
2016-09-02T18:52:27.681Z,1011.81
2016-09-02T18:57:24.218Z,1011.77
2016-09-02T19:02:21.492Z,1011.87
2016-09-02T19:07:18.279Z,1011.85
2016-09-02T19:12:15.863Z,1011.81
2016-09-02T19:17:12.396Z,1011.84
2016-09-02T19:22:08.769Z,1011.83
2016-09-02T19:27:06.126Z,1011.86
2016-09-02T19:32:03.032Z,1011.83
2016-09-02T19:36:59.850Z,1011.83
2016-09-02T19:41:56.501Z,1011.97
2016-09-02T19:46:53.345Z,1011.97
2016-09-02T19:51:50.100Z,1012.04
2016-09-02T19:56:46.849Z,1012.05
2016-09-02T20:01:43.462Z,1012.05
2016-09-02T20:06:40.510Z,1012.00
2016-09-02T20:11:37.151Z,1012.07
2016-09-02T20:16:34.668Z,1012.01
2016-09-02T20:21:33.642Z,1012.03
2016-09-02T20:26:29.703Z,1012.00
2016-09-02T20:31:26.531Z,1011.97
2016-09-02T20:36:23.033Z,1012.03
2016-09-02T20:41:20.959Z,1011.87
2016-09-02T20:46:17.374Z,1011.88
2016-09-02T20:51:14.309Z,1011.67
2016-09-02T20:56:11.513Z,1011.66
2016-09-02T21:01:11.090Z,1011.60
2016-09-02T21:06:07.293Z,1011.54
2016-09-02T21:11:04.189Z,1011.64
2016-09-02T21:16:00.895Z,1011.73
2016-09-02T21:20:57.633Z,1011.64
2016-09-02T21:25:54.304Z,1011.63
2016-09-02T21:30:51.097Z,1011.61
2016-09-02T21:35:48.250Z,1011.62
2016-09-02T21:40:44.754Z,1011.62
2016-09-02T21:45:43.924Z,1011.57
2016-09-02T21:50:39.913Z,1011.59
2016-09-02T21:55:36.950Z,1011.62
2016-09-02T22:00:33.703Z,1011.42
2016-09-02T22:05:30.340Z,1011.41
2016-09-02T22:10:27.262Z,1011.30
2016-09-02T22:15:23.781Z,1011.48
2016-09-02T22:20:20.452Z,1011.62
2016-09-02T22:25:17.073Z,1011.64
2016-09-02T22:30:13.743Z,1011.75
2016-09-02T22:35:10.702Z,1011.87
2016-09-02T22:40:07.261Z,1011.78
2016-09-02T22:45:04.359Z,1011.69
2016-09-02T22:50:00.958Z,1011.69
2016-09-02T22:54:57.571Z,1011.74
2016-09-02T22:59:54.564Z,1011.76
2016-09-02T23:04:51.320Z,1011.86
2016-09-02T23:09:48.002Z,1011.86
2016-09-02T23:14:44.426Z,1011.87
2016-09-02T23:19:41.126Z,1011.95
2016-09-02T23:24:37.993Z,1011.98
2016-09-02T23:44:40.653Z,1012.26
2016-09-02T23:49:37.249Z,1012.28
2016-09-02T23:54:33.613Z,1012.16
2016-09-02T23:59:30.172Z,1012.01
